Pagrindinis puslapis
METAR-TAF:

METAR-TAF

Oro uostai :

Golovin, Aliaska, Jungtinės Amerikos Valstijos

platuma: 64-32-36N, ilguma: 163-02-22W, Aukštis: 8 m

Dabartinis oras

Ataskaita buvo paskelbta 29 minutes, ne 11:56 UTC
Vėjas 3 kt nuo kintamojo kryptimis
Temperatūra 9°C
Drėgmė 100%
Slėgis 1014 hPa
Matomumas: 16.1 km
Apsiniaukę ne aukštis 400 ft

METAR: PAGL 041156Z AUTO VRB03KT 10SM OVC004 09/09 A2994 RMK AO2 CIG 002V006 SLP134 T00940089 10100 20089 53007

Laikas: 04:25 (12:25 UTC)


TAF: trūkstamas

Orai ataskaitas ir orų prognozės (METAR, TAF).

turimą stotys yra geltonos ir raudonos taškus žemėlapyje.

Perkelti pele per norėdami pamatyti stoties vardą.

Tada spustelėkite, norėdami matyti oro stebėjimo ir prognozės.

Norėdami pakeisti žemėlapį: spustelėkite ant žalios mygtukų su juodo kryžiaus žemyn,; žalią mygtuką su brūkšneliu, jei norite nutolinti; arba žalių rodyklių gretimoms žemėlapius.


METAR-TAF: